Time;durP1;ratioP1;P1;durP2;ratioP2;P2;SDS_P1;SDS_P2;PMS_P1;PMS_P2;Temp;Humidity;BMP_temperature;BMP_pressure;BME280_temperature;BME280_humidity;BME280_pressure;Samples;Min_cycle;Max_cycle;Signal;HPM_P1;HPM_P2
2022/12/24 00:02:13;;;;;;;20.67;1.90;;;10.20;99.90;;;;;;6248858;22;20031;-79
2022/12/24 00:04:39;;;;;;;32.13;2.35;;;10.20;99.90;;;;;;6274736;22;20007;-80
2022/12/24 00:07:04;;;;;;;25.15;2.17;;;10.20;99.90;;;;;;6274811;22;20007;-80
2022/12/24 00:09:30;;;;;;;19.73;2.03;;;10.20;99.90;;;;;;6248949;22;20090;-79
2022/12/24 00:11:56;;;;;;;21.73;1.88;;;10.10;99.90;;;;;;6275171;22;20015;-79
2022/12/24 00:14:21;;;;;;;29.70;2.88;;;10.10;99.90;;;;;;6300185;22;19999;-80
2022/12/24 00:16:47;;;;;;;26.08;2.10;;;10.20;99.90;;;;;;6275012;22;20009;-79
2022/12/24 00:19:13;;;;;;;28.27;3.10;;;10.10;99.90;;;;;;6274927;22;20003;-80
2022/12/24 00:21:38;;;;;;;27.25;3.45;;;10.20;99.90;;;;;;6274136;22;20015;-79
2022/12/24 00:24:04;;;;;;;25.40;3.08;;;10.20;99.90;;;;;;6274550;22;20082;-80
2022/12/24 00:26:32;;;;;;;26.75;2.17;;;10.10;99.90;;;;;;6300699;22;20007;-79
2022/12/24 00:28:57;;;;;;;25.60;2.75;;;10.10;99.90;;;;;;6275258;22;20015;-79
2022/12/24 00:31:23;;;;;;;24.15;2.15;;;10.10;99.90;;;;;;6275071;22;20420;-80
2022/12/24 00:33:49;;;;;;;25.77;2.33;;;10.10;99.90;;;;;;6302086;22;20003;-79
2022/12/24 00:36:15;;;;;;;27.08;2.85;;;10.10;99.90;;;;;;6274199;22;20074;-81
2022/12/24 00:38:41;;;;;;;20.88;2.30;;;10.10;99.90;;;;;;6302668;22;20011;-80
2022/12/24 00:41:23;;;;;;;24.23;1.98;;;10.10;99.90;;;;;;6300630;22;20002;-79
2022/12/24 00:44:10;;;;;;;23.23;2.20;;;10.10;99.90;;;;;;6276217;22;20366;-80
2022/12/24 00:46:38;;;;;;;25.25;2.75;;;10.10;99.90;;;;;;6277161;22;20451;-80
2022/12/24 00:49:05;;;;;;;20.35;2.00;;;10.10;99.90;;;;;;6276939;22;20007;-80
2022/12/24 00:51:31;;;;;;;23.70;1.90;;;10.00;99.90;;;;;;6276518;22;20038;-81
2022/12/24 00:53:58;;;;;;;32.72;2.83;;;10.00;99.90;;;;;;6277324;22;20305;-82
2022/12/24 00:56:24;;;;;;;25.13;3.08;;;10.10;99.90;;;;;;6251021;22;20034;-82
2022/12/24 00:58:49;;;;;;;22.65;3.40;;;10.10;99.90;;;;;;6251359;22;20313;-81
2022/12/24 01:01:16;;;;;;;22.42;2.33;;;10.10;99.90;;;;;;6276110;22;20015;-81
2022/12/24 01:03:41;;;;;;;34.72;2.67;;;10.10;99.90;;;;;;6304503;22;20003;-81
2022/12/24 01:06:13;;;;;;;22.95;2.92;;;10.10;99.90;;;;;;6304003;22;20157;-81
2022/12/24 01:08:40;;;;;;;28.67;2.17;;;10.10;99.90;;;;;;6251912;22;20018;-82
2022/12/24 01:11:08;;;;;;;25.80;2.38;;;10.00;99.90;;;;;;6276717;22;20002;-82
2022/12/24 01:13:34;;;;;;;25.60;2.28;;;10.00;99.90;;;;;;6250643;22;20521;-81
2022/12/24 01:16:00;;;;;;;29.77;3.55;;;10.10;99.90;;;;;;6276650;22;20007;-81
2022/12/24 01:18:26;;;;;;;28.52;3.03;;;10.00;99.90;;;;;;6276648;22;20455;-82
2022/12/24 01:21:00;;;;;;;33.17;3.70;;;10.00;99.90;;;;;;6303893;22;20092;-81
2022/12/24 01:23:26;;;;;;;23.17;2.50;;;10.10;99.90;;;;;;6304229;22;20022;-81
2022/12/24 01:25:52;;;;;;;23.15;2.58;;;10.10;99.90;;;;;;6276612;22;20025;-81
2022/12/24 01:28:19;;;;;;;43.13;5.65;;;10.00;99.90;;;;;;6304005;22;20015;-80
2022/12/24 01:30:45;;;;;;;22.48;2.92;;;10.00;99.90;;;;;;6276718;22;20009;-82
2022/12/24 01:33:11;;;;;;;28.30;2.17;;;9.90;99.90;;;;;;6250941;22;20086;-81
2022/12/24 01:35:40;;;;;;;24.65;2.78;;;10.00;99.90;;;;;;6276396;22;20015;-81
2022/12/24 01:38:06;;;;;;;24.45;2.78;;;9.90;99.90;;;;;;6276822;22;20031;-81
2022/12/24 01:43:24;;;;;;;30.45;3.28;;;10.00;99.90;;;;;;6303664;22;20487;-80
2022/12/24 01:45:51;;;;;;;24.85;2.53;;;10.00;99.90;;;;;;6276399;22;20015;-81
2022/12/24 01:48:26;;;;;;;36.40;3.28;;;9.90;99.90;;;;;;6249652;22;20003;-81
2022/12/24 01:50:58;;;;;;;29.15;3.28;;;9.90;99.90;;;;;;6251256;22;20364;-81
2022/12/24 01:53:24;;;;;;;27.58;4.00;;;10.00;99.90;;;;;;6301779;22;20105;-81
2022/12/24 01:55:50;;;;;;;24.08;2.55;;;10.00;99.90;;;;;;6303318;22;20007;-82
2022/12/24 01:58:20;;;;;;;31.67;2.25;;;9.90;99.90;;;;;;6275715;22;20355;-81
2022/12/24 02:00:45;;;;;;;29.67;3.78;;;9.90;99.90;;;;;;6250758;22;20042;-81
2022/12/24 02:03:11;;;;;;;23.42;3.22;;;9.90;99.90;;;;;;6300885;22;20352;-80
2022/12/24 02:05:47;;;;;;;29.35;3.42;;;9.90;99.90;;;;;;6302266;22;20008;-81
2022/12/24 02:08:15;;;;;;;26.40;2.40;;;9.80;99.90;;;;;;6275909;22;20006;-80
2022/12/24 02:10:40;;;;;;;28.45;2.15;;;9.80;99.90;;;;;;6250683;22;20011;-80
2022/12/24 02:13:07;;;;;;;33.53;3.08;;;9.70;99.90;;;;;;6301766;22;19995;-80
2022/12/24 02:15:50;;;;;;;30.05;2.78;;;9.70;99.90;;;;;;6275473;22;20007;-81
2022/12/24 02:18:29;;;;;;;26.50;2.75;;;9.70;99.90;;;;;;6249624;22;20034;-80
2022/12/24 02:21:17;;;;;;;21.42;3.00;;;9.60;99.90;;;;;;6250654;22;20007;-82
2022/12/24 02:24:17;;;;;;;17.25;1.52;;;9.60;99.90;;;;;;6275927;22;20011;-81
2022/12/24 02:27:00;;;;;;;23.10;1.73;;;9.60;99.90;;;;;;6276058;22;20333;-81
2022/12/24 02:29:52;;;;;;;26.55;2.25;;;9.60;99.90;;;;;;6275530;22;20049;-80
2022/12/24 02:32:47;;;;;;;23.65;2.80;;;9.50;99.90;;;;;;6275076;22;20007;-81
2022/12/24 02:35:37;;;;;;;19.80;2.28;;;9.50;99.90;;;;;;6303110;22;20011;-80
2022/12/24 02:38:12;;;;;;;25.80;1.85;;;9.40;99.90;;;;;;6250281;22;20447;-81
2022/12/24 02:41:06;;;;;;;21.20;1.90;;;9.40;99.90;;;;;;6276138;22;20011;-81
2022/12/24 02:43:36;;;;;;;26.75;2.05;;;9.20;99.90;;;;;;6263440;22;20378;-81
2022/12/24 02:46:10;;;;;;;26.27;2.30;;;9.20;99.90;;;;;;6275967;22;20018;-80
2022/12/24 02:48:40;;;;;;;21.88;1.98;;;9.30;99.90;;;;;;6250399;22;20098;-81
2022/12/24 02:51:08;;;;;;;26.08;2.58;;;9.30;99.90;;;;;;6250670;22;20026;-81
2022/12/24 02:53:35;;;;;;;20.02;1.88;;;9.20;99.90;;;;;;6275091;22;20011;-81
2022/12/24 02:56:39;;;;;;;30.75;2.25;;;9.10;99.90;;;;;;6275906;22;20014;-81
2022/12/24 02:59:29;;;;;;;22.17;1.63;;;9.10;99.90;;;;;;6153427;23;20100;-81
2022/12/24 03:02:33;;;;;;;17.40;1.63;;;9.00;99.90;;;;;;6153024;23;20063;-81
2022/12/24 03:05:17;;;;;;;18.15;1.10;;;9.00;99.90;;;;;;6128609;23;20013;-81
2022/12/24 03:07:56;;;;;;;15.18;1.20;;;9.00;99.90;;;;;;6178520;23;20040;-81
2022/12/24 03:10:56;;;;;;;20.23;1.40;;;9.00;99.90;;;;;;6128881;23;20453;-81
2022/12/24 03:13:23;;;;;;;14.23;1.00;;;8.90;99.90;;;;;;6177597;23;20015;-81
2022/12/24 03:15:50;;;;;;;9.82;1.42;;;8.80;99.90;;;;;;6128099;23;20095;-81
2022/12/24 03:18:19;;;;;;;18.70;2.65;;;8.70;99.90;;;;;;6178129;23;20017;-81
2022/12/24 03:20:53;;;;;;;12.73;0.97;;;8.80;99.90;;;;;;6178301;23;20033;-81
2022/12/24 03:23:19;;;;;;;19.67;1.48;;;8.70;99.90;;;;;;6128181;23;20024;-82
2022/12/24 03:25:45;;;;;;;11.75;0.77;;;8.80;99.90;;;;;;6178434;23;20009;-81
2022/12/24 03:28:13;;;;;;;19.23;2.05;;;8.70;99.90;;;;;;6128141;23;20059;-81
2022/12/24 03:30:45;;;;;;;20.95;2.47;;;8.80;99.90;;;;;;6177761;23;20080;-81
2022/12/24 03:33:12;;;;;;;22.05;2.13;;;8.80;99.90;;;;;;6177881;23;20360;-80
2022/12/24 03:35:38;;;;;;;21.25;1.67;;;8.90;99.90;;;;;;6294623;22;20451;-80
2022/12/24 03:38:03;;;;;;;11.32;0.93;;;8.90;99.90;;;;;;6275703;22;20309;-81
2022/12/24 03:40:29;;;;;;;23.77;1.52;;;8.80;99.90;;;;;;6250038;22;20110;-82
2022/12/24 03:42:55;;;;;;;18.83;1.85;;;8.80;99.90;;;;;;6300987;22;20073;-82
2022/12/24 03:45:21;;;;;;;25.33;2.55;;;8.80;99.90;;;;;;6274716;22;20010;-81
2022/12/24 03:47:46;;;;;;;25.00;2.25;;;8.90;99.90;;;;;;6301665;22;19999;-81
2022/12/24 03:50:12;;;;;;;22.23;2.50;;;8.90;99.90;;;;;;6274862;22;20105;-81
2022/12/24 03:52:38;;;;;;;16.08;1.33;;;9.00;99.90;;;;;;6301358;22;20011;-81
2022/12/24 03:55:04;;;;;;;18.33;1.70;;;8.90;99.90;;;;;;6249449;22;20522;-80
2022/12/24 03:57:30;;;;;;;20.90;2.25;;;8.90;99.90;;;;;;6275077;22;20007;-81
2022/12/24 03:59:56;;;;;;;20.85;1.70;;;8.90;99.90;;;;;;6249200;22;20087;-81
2022/12/24 04:02:21;;;;;;;20.35;1.77;;;9.00;99.90;;;;;;6275231;22;20038;-81
2022/12/24 04:04:47;;;;;;;24.80;2.25;;;9.10;99.90;;;;;;6275345;22;20007;-82
2022/12/24 04:07:12;;;;;;;28.90;3.33;;;9.20;99.90;;;;;;6275023;22;20092;-81
2022/12/24 04:09:39;;;;;;;19.33;2.20;;;9.20;99.90;;;;;;6250040;22;20018;-81
2022/12/24 04:12:06;;;;;;;15.13;1.75;;;9.10;99.90;;;;;;6301505;22;20460;-81
2022/12/24 04:14:31;;;;;;;25.92;2.00;;;9.00;99.90;;;;;;6301394;22;20052;-81
2022/12/24 04:16:57;;;;;;;18.27;1.80;;;9.10;99.90;;;;;;6275267;22;20008;-81
2022/12/24 04:19:23;;;;;;;27.73;2.20;;;9.10;99.90;;;;;;6302920;22;20003;-81
2022/12/24 04:21:48;;;;;;;33.53;3.05;;;9.20;99.90;;;;;;6277114;22;20026;-81
2022/12/24 04:24:14;;;;;;;27.50;2.95;;;9.30;99.90;;;;;;6251286;22;20471;-80
2022/12/24 04:26:40;;;;;;;21.77;2.15;;;9.30;99.90;;;;;;6303480;22;20007;-81
2022/12/24 04:29:05;;;;;;;22.50;2.55;;;9.30;99.90;;;;;;6276792;22;20015;-81
2022/12/24 04:31:31;;;;;;;28.75;3.42;;;9.30;99.90;;;;;;6302875;22;20397;-82
2022/12/24 04:33:56;;;;;;;23.70;3.10;;;9.40;99.90;;;;;;6276744;22;20007;-81
2022/12/24 04:36:23;;;;;;;20.10;2.20;;;9.40;99.90;;;;;;6302897;22;20038;-80
2022/12/24 04:38:49;;;;;;;20.02;3.17;;;9.40;99.90;;;;;;6304555;22;20404;-81
2022/12/24 04:41:22;;;;;;;25.35;2.88;;;9.40;99.90;;;;;;6277038;22;20026;-81
2022/12/24 04:43:48;;;;;;;20.08;2.33;;;9.40;99.90;;;;;;6276486;22;20019;-81
2022/12/24 04:46:29;;;;;;;11.02;1.60;;;9.40;99.90;;;;;;6251095;22;20011;-81
2022/12/24 04:48:55;;;;;;;24.85;3.15;;;9.40;99.90;;;;;;6304632;22;20133;-80
2022/12/24 04:51:21;;;;;;;14.30;1.65;;;9.40;99.90;;;;;;6276732;22;20029;-81
2022/12/24 04:53:47;;;;;;;21.13;3.33;;;9.40;99.90;;;;;;6276809;22;20508;-81
2022/12/24 04:56:19;;;;;;;23.52;3.75;;;9.50;99.90;;;;;;6302966;22;20003;-81
2022/12/24 04:58:45;;;;;;;19.42;2.92;;;9.60;99.90;;;;;;6251259;22;20470;-81
2022/12/24 05:01:13;;;;;;;28.17;3.42;;;9.60;99.90;;;;;;6303733;22;20007;-81
2022/12/24 05:03:39;;;;;;;22.15;3.00;;;9.60;99.90;;;;;;6277117;22;20078;-81
2022/12/24 05:06:07;;;;;;;27.17;4.35;;;9.60;99.90;;;;;;6251402;22;20059;-81
2022/12/24 05:08:33;;;;;;;26.35;4.80;;;9.70;99.90;;;;;;6251107;22;20011;-81
2022/12/24 05:11:00;;;;;;;27.00;3.45;;;9.80;99.90;;;;;;6276973;22;20007;-81
2022/12/24 05:13:27;;;;;;;16.65;3.15;;;9.70;99.90;;;;;;6275818;22;20088;-80
2022/12/24 05:15:53;;;;;;;17.95;2.95;;;9.70;99.90;;;;;;6276893;22;19995;-81
2022/12/24 05:18:20;;;;;;;13.95;2.05;;;9.60;99.90;;;;;;6251004;22;20435;-82
2022/12/24 05:20:46;;;;;;;17.33;3.08;;;9.70;99.90;;;;;;6304424;22;20003;-81
2022/12/24 05:26:21;;;;;;;25.58;3.42;;;9.70;99.90;;;;;;6303630;22;20048;-81
2022/12/24 05:28:53;;;;;;;31.30;3.10;;;9.80;99.90;;;;;;6276875;22;20078;-81
2022/12/24 05:31:19;;;;;;;18.50;2.65;;;9.80;99.90;;;;;;6250863;22;20422;-82
2022/12/24 05:33:45;;;;;;;25.40;3.58;;;9.80;99.90;;;;;;6276338;22;20076;-81
2022/12/24 05:36:11;;;;;;;20.42;3.22;;;9.70;99.90;;;;;;6275685;22;20011;-79
2022/12/24 05:38:36;;;;;;;29.55;3.88;;;9.70;99.90;;;;;;6302071;22;20003;-80
2022/12/24 05:41:03;;;;;;;31.38;4.60;;;9.90;99.90;;;;;;6302195;22;20246;-80
2022/12/24 05:43:28;;;;;;;20.90;2.67;;;9.90;99.90;;;;;;6250688;22;20023;-81
2022/12/24 05:46:02;;;;;;;29.48;4.32;;;9.90;99.90;;;;;;6276332;22;20511;-82
2022/12/24 05:48:28;;;;;;;21.27;3.70;;;9.90;99.90;;;;;;6299088;22;20011;-80
2022/12/24 05:50:54;;;;;;;29.95;5.18;;;9.90;99.90;;;;;;6275586;22;20317;-81
2022/12/24 05:53:20;;;;;;;27.70;3.75;;;10.00;99.90;;;;;;6247421;22;20014;-81
2022/12/24 05:55:46;;;;;;;26.70;4.60;;;10.00;99.90;;;;;;6244950;22;20011;-80
2022/12/24 05:58:12;;;;;;;31.35;4.57;;;10.10;99.90;;;;;;6245431;22;20006;-79
2022/12/24 06:00:38;;;;;;;32.80;4.28;;;10.10;99.90;;;;;;6245625;22;20011;-81
2022/12/24 06:03:03;;;;;;;30.13;5.00;;;10.10;99.90;;;;;;6245104;22;20023;-81
2022/12/24 06:05:29;;;;;;;22.63;3.65;;;10.20;99.90;;;;;;6272044;22;20004;-81
2022/12/24 06:07:55;;;;;;;30.13;3.60;;;10.10;99.90;;;;;;6245544;22;20031;-81
2022/12/24 06:10:21;;;;;;;22.33;3.78;;;10.10;99.90;;;;;;6244498;22;20000;-82
2022/12/24 06:12:46;;;;;;;35.70;4.20;;;10.10;99.90;;;;;;6245556;22;20061;-81
2022/12/24 06:15:12;;;;;;;28.02;4.30;;;10.10;99.90;;;;;;6244567;22;20332;-81
2022/12/24 06:17:38;;;;;;;28.30;3.95;;;10.20;99.90;;;;;;6271016;22;20454;-81
2022/12/24 06:20:04;;;;;;;31.52;4.65;;;10.10;99.90;;;;;;6245038;22;19995;-81
2022/12/24 06:22:30;;;;;;;30.55;4.57;;;10.20;99.90;;;;;;6244416;22;20042;-81
2022/12/24 06:24:56;;;;;;;26.25;3.20;;;10.20;99.90;;;;;;6270624;22;20003;-81
2022/12/24 06:27:21;;;;;;;26.05;3.28;;;10.20;99.90;;;;;;6270390;22;20008;-82
2022/12/24 06:29:47;;;;;;;28.58;4.15;;;10.20;99.90;;;;;;6272496;22;20014;-82
2022/12/24 06:32:12;;;;;;;15.63;1.88;;;10.20;99.90;;;;;;6244658;22;20007;-82
2022/12/24 06:34:38;;;;;;;24.48;3.60;;;10.10;99.90;;;;;;6244565;22;20015;-81
2022/12/24 06:37:04;;;;;;;21.13;2.92;;;10.20;99.90;;;;;;6245500;22;20034;-81
2022/12/24 06:39:30;;;;;;;27.38;4.38;;;10.20;99.90;;;;;;6218903;22;20432;-82
2022/12/24 06:41:55;;;;;;;17.23;3.13;;;10.20;99.90;;;;;;6219586;22;20066;-82
2022/12/24 06:44:21;;;;;;;13.23;1.70;;;10.20;99.90;;;;;;6244829;22;20052;-82
2022/12/24 06:46:47;;;;;;;15.52;1.92;;;10.10;99.90;;;;;;6270371;22;20083;-81
2022/12/24 06:49:12;;;;;;;17.40;1.98;;;10.10;99.90;;;;;;6269897;22;19999;-81
2022/12/24 06:51:38;;;;;;;10.40;1.48;;;10.10;99.90;;;;;;6245221;22;20083;-81
2022/12/24 06:54:04;;;;;;;18.33;2.38;;;10.00;99.90;;;;;;6271248;22;20016;-80
2022/12/24 06:56:29;;;;;;;14.02;2.03;;;10.00;99.90;;;;;;6244441;22;20008;-81
2022/12/24 06:58:55;;;;;;;18.85;3.08;;;10.00;99.90;;;;;;6219705;22;20019;-81
2022/12/24 07:01:23;;;;;;;27.83;3.92;;;10.10;99.90;;;;;;6244071;22;20090;-82
2022/12/24 07:03:49;;;;;;;20.25;3.15;;;10.10;99.90;;;;;;6270011;22;20011;-80
2022/12/24 07:06:24;;;;;;;19.60;2.60;;;10.10;99.90;;;;;;6219424;22;20071;-81
2022/12/24 07:08:50;;;;;;;21.63;3.08;;;10.10;99.90;;;;;;6271933;22;20008;-81
2022/12/24 07:11:16;;;;;;;17.13;2.78;;;10.00;99.90;;;;;;6218895;22;20081;-82
2022/12/24 07:13:42;;;;;;;15.93;2.03;;;10.00;99.90;;;;;;6244926;22;20026;-79
2022/12/24 07:16:08;;;;;;;22.95;3.42;;;10.00;99.90;;;;;;6244374;22;20039;-81
2022/12/24 07:18:33;;;;;;;18.50;3.13;;;10.00;99.90;;;;;;6269934;22;20019;-80
2022/12/24 07:21:00;;;;;;;22.90;3.38;;;10.00;99.90;;;;;;6270149;22;20318;-81
2022/12/24 07:23:25;;;;;;;18.58;2.72;;;10.00;99.90;;;;;;6269074;22;20019;-81
2022/12/24 07:25:51;;;;;;;19.92;2.70;;;9.90;99.90;;;;;;6244591;22;20100;-81
2022/12/24 07:28:17;;;;;;;18.73;2.28;;;9.90;99.90;;;;;;6270347;22;20426;-81
2022/12/24 07:30:42;;;;;;;15.23;2.42;;;9.90;99.90;;;;;;6244301;22;20091;-81
2022/12/24 07:33:08;;;;;;;18.33;2.15;;;9.90;99.90;;;;;;6271752;22;20004;-81
2022/12/24 07:35:34;;;;;;;14.48;2.50;;;9.80;99.90;;;;;;6243838;22;20008;-81
2022/12/24 07:38:00;;;;;;;19.83;3.10;;;9.80;99.90;;;;;;6218849;22;20444;-82
2022/12/24 07:40:26;;;;;;;19.42;3.22;;;9.80;99.90;;;;;;6243191;22;20039;-82
2022/12/24 07:42:52;;;;;;;31.02;4.72;;;9.90;99.90;;;;;;6242366;22;20027;-82
2022/12/24 07:45:17;;;;;;;15.60;2.45;;;9.90;99.90;;;;;;6242863;22;20007;-81
2022/12/24 07:47:43;;;;;;;22.63;3.30;;;9.90;99.90;;;;;;6242950;22;20014;-79
2022/12/24 07:50:09;;;;;;;24.17;2.50;;;9.90;99.90;;;;;;6268235;22;20023;-81
2022/12/24 07:52:35;;;;;;;20.58;4.03;;;9.90;99.90;;;;;;6241632;22;20018;-81
2022/12/24 07:55:00;;;;;;;18.85;3.85;;;9.90;99.90;;;;;;6292197;22;20050;-81
2022/12/24 07:57:26;;;;;;;14.25;2.22;;;9.90;99.90;;;;;;6300452;22;20029;-81
2022/12/24 07:59:51;;;;;;;16.42;2.20;;;9.90;99.90;;;;;;6273299;22;20087;-81
2022/12/24 08:02:17;;;;;;;30.52;4.15;;;9.80;99.90;;;;;;6272237;22;20415;-81
2022/12/24 08:04:43;;;;;;;17.23;2.40;;;9.90;99.90;;;;;;6272562;22;20007;-80
2022/12/24 08:07:08;;;;;;;19.00;2.85;;;9.90;99.90;;;;;;6271742;22;20057;-81
2022/12/24 08:09:35;;;;;;;18.55;3.00;;;9.90;99.90;;;;;;6265561;22;20015;-81
2022/12/24 08:12:01;;;;;;;25.70;3.65;;;10.00;99.90;;;;;;6247632;22;20340;-82
2022/12/24 08:14:29;;;;;;;19.50;4.20;;;10.00;99.90;;;;;;6235655;22;20403;-81
2022/12/24 08:16:55;;;;;;;29.20;4.03;;;10.00;99.90;;;;;;6259829;22;20008;-80
2022/12/24 08:19:21;;;;;;;22.20;3.45;;;10.00;99.90;;;;;;6259775;22;20041;-80
2022/12/24 08:21:46;;;;;;;21.15;3.50;;;10.00;99.90;;;;;;6251251;22;20142;-80
2022/12/24 08:24:12;;;;;;;32.13;4.25;;;10.10;99.90;;;;;;6282125;22;20014;-79
2022/12/24 08:26:38;;;;;;;26.02;4.82;;;10.10;99.90;;;;;;6258768;22;20438;-82
2022/12/24 08:29:04;;;;;;;24.65;4.15;;;10.20;99.90;;;;;;6285693;22;20032;-81
2022/12/24 08:31:35;;;;;;;27.85;4.38;;;10.20;99.90;;;;;;6259689;22;20011;-81
2022/12/24 08:34:02;;;;;;;30.10;4.10;;;10.20;99.90;;;;;;6287751;22;20556;-81
2022/12/24 08:36:27;;;;;;;23.65;4.28;;;10.20;99.90;;;;;;6231618;22;20011;-81
2022/12/24 08:38:53;;;;;;;30.27;3.80;;;10.20;99.90;;;;;;6287202;22;20455;-81
2022/12/24 08:41:19;;;;;;;27.67;3.58;;;10.20;99.90;;;;;;6284846;22;20424;-80
2022/12/24 08:43:44;;;;;;;27.05;3.67;;;10.30;99.90;;;;;;6259548;22;20025;-82
2022/12/24 08:46:10;;;;;;;21.48;2.13;;;10.20;99.90;;;;;;6284942;22;20452;-81
2022/12/24 08:48:36;;;;;;;21.20;3.40;;;10.20;99.90;;;;;;6287926;22;20025;-81
2022/12/24 08:51:09;;;;;;;34.15;4.70;;;10.20;99.90;;;;;;6285911;22;20117;-82
2022/12/24 08:53:34;;;;;;;21.45;3.42;;;10.10;99.90;;;;;;6248090;22;20451;-81
2022/12/24 08:56:02;;;;;;;17.02;2.22;;;10.20;99.90;;;;;;6285741;22;20015;-82
2022/12/24 08:58:28;;;;;;;15.85;2.40;;;10.20;99.90;;;;;;6233676;22;20068;-81
2022/12/24 09:00:54;;;;;;;27.00;4.10;;;10.20;99.90;;;;;;6232731;22;20015;-81
2022/12/24 09:03:19;;;;;;;29.67;5.15;;;10.20;99.90;;;;;;6289432;22;20307;-80
2022/12/24 09:05:45;;;;;;;23.55;3.75;;;10.30;99.90;;;;;;6299153;22;20492;-81
2022/12/24 09:08:11;;;;;;;34.72;5.35;;;10.30;99.90;;;;;;6273071;22;20007;-80
2022/12/24 09:10:36;;;;;;;23.15;3.33;;;10.30;99.90;;;;;;6273871;22;20004;-82
2022/12/24 09:13:02;;;;;;;23.50;3.97;;;10.30;99.90;;;;;;6298720;22;20011;-81
2022/12/24 09:15:28;;;;;;;19.20;3.10;;;10.40;99.90;;;;;;6273881;22;20017;-82
2022/12/24 09:17:54;;;;;;;27.30;4.95;;;10.30;99.90;;;;;;6298299;22;20048;-82
2022/12/24 09:20:19;;;;;;;28.00;4.35;;;10.40;99.90;;;;;;6299816;22;20072;-81
2022/12/24 09:22:45;;;;;;;29.60;4.85;;;10.40;99.90;;;;;;6273334;22;20085;-82
2022/12/24 09:25:11;;;;;;;18.40;3.25;;;10.40;99.90;;;;;;6274064;22;20003;-81
2022/12/24 09:27:37;;;;;;;20.83;4.43;;;10.50;99.90;;;;;;6274092;22;20003;-81
2022/12/24 09:30:04;;;;;;;20.52;3.95;;;10.50;99.90;;;;;;6301222;22;20519;-82
2022/12/24 09:32:30;;;;;;;23.27;5.07;;;10.60;99.90;;;;;;6273437;22;20007;-81
2022/12/24 09:34:55;;;;;;;38.25;5.13;;;10.60;99.90;;;;;;6247768;22;20480;-81
2022/12/24 09:37:21;;;;;;;35.28;6.05;;;10.50;99.90;;;;;;6300840;22;20069;-82
2022/12/24 09:39:47;;;;;;;24.95;4.72;;;10.50;99.90;;;;;;6248502;22;20004;-81
2022/12/24 09:42:47;;;;;;;24.45;4.38;;;10.60;99.90;;;;;;6274057;22;20169;-82
2022/12/24 09:45:30;;;;;;;27.10;4.95;;;10.60;99.90;;;;;;6248824;22;20069;-80
2022/12/24 09:48:10;;;;;;;27.80;4.82;;;10.50;99.90;;;;;;6270468;22;20004;-82
2022/12/24 09:51:07;;;;;;;22.77;4.40;;;10.50;99.90;;;;;;6273731;22;20335;-81
2022/12/24 09:54:11;;;;;;;26.77;4.85;;;10.50;99.90;;;;;;6273470;22;20363;-81
2022/12/24 09:56:40;;;;;;;20.98;4.35;;;10.50;99.90;;;;;;6209893;22;20045;-81
2022/12/24 09:59:24;;;;;;;24.70;5.20;;;10.50;99.90;;;;;;6255579;22;20509;-81
2022/12/24 10:01:53;;;;;;;24.98;5.05;;;10.50;99.90;;;;;;6232407;22;20019;-81
2022/12/24 10:04:22;;;;;;;26.55;4.70;;;10.50;99.90;;;;;;6262615;22;20011;-81
2022/12/24 10:06:56;;;;;;;29.40;4.90;;;10.60;99.90;;;;;;6290241;22;20023;-81
2022/12/24 10:09:42;;;;;;;30.38;6.13;;;10.50;99.90;;;;;;6235990;22;20452;-81
2022/12/24 10:12:41;;;;;;;25.80;5.00;;;10.50;99.90;;;;;;6262640;22;20011;-80
2022/12/24 10:15:19;;;;;;;27.15;5.75;;;10.50;99.90;;;;;;6209667;22;20648;-80
2022/12/24 10:17:58;;;;;;;36.40;5.88;;;10.70;99.90;;;;;;6288051;22;20072;-81
2022/12/24 10:20:35;;;;;;;35.88;6.32;;;10.70;99.90;;;;;;6237289;22;20026;-80
2022/12/24 10:23:10;;;;;;;19.40;4.60;;;10.70;99.90;;;;;;6236343;22;20105;-80
2022/12/24 10:26:18;;;;;;;14.02;2.60;;;10.60;99.90;;;;;;6262801;22;20007;-80
2022/12/24 10:32:30;;;;;;;26.25;5.15;;;10.60;99.90;;;;;;6286371;22;20029;-79
2022/12/24 10:35:07;;;;;;;23.42;3.65;;;10.70;99.90;;;;;;6260770;22;20015;-80
2022/12/24 10:45:37;;;;;;;25.42;3.15;;;10.80;99.90;;;;;;6070544;23;20033;-80
2022/12/24 10:48:10;;;;;;;30.13;3.85;;;10.80;99.90;;;;;;6049766;23;20051;-81
2022/12/24 10:50:48;;;;;;;25.38;4.70;;;10.80;99.90;;;;;;6034874;23;20528;-80
2022/12/24 10:53:24;;;;;;;27.23;4.40;;;10.90;99.90;;;;;;6044889;23;20082;-82
2022/12/24 10:55:50;;;;;;;20.27;3.58;;;10.80;99.90;;;;;;6020566;23;20023;-81
2022/12/24 10:58:18;;;;;;;21.38;3.85;;;10.80;99.90;;;;;;6039180;23;20054;-81
2022/12/24 11:00:52;;;;;;;27.88;3.92;;;10.80;99.90;;;;;;6039996;23;20015;-82
2022/12/24 11:03:18;;;;;;;23.65;3.42;;;10.70;99.90;;;;;;5996663;23;20613;-80
2022/12/24 11:05:43;;;;;;;21.85;3.67;;;10.60;99.90;;;;;;6020855;23;20407;-81
2022/12/24 11:08:11;;;;;;;20.20;3.08;;;10.60;99.90;;;;;;6045394;23;20017;-82
2022/12/24 11:10:41;;;;;;;31.80;4.40;;;10.60;99.90;;;;;;5995914;23;20093;-82
2022/12/24 11:13:33;;;;;;;35.38;4.95;;;10.60;99.90;;;;;;5997562;23;20015;-81
2022/12/24 11:16:21;;;;;;;21.48;3.03;;;10.60;99.90;;;;;;6020280;23;20377;-81
2022/12/24 11:18:52;;;;;;;29.52;3.97;;;10.80;99.90;;;;;;6177873;22;20035;-81
2022/12/24 11:21:25;;;;;;;25.13;3.42;;;10.80;99.90;;;;;;6256083;22;20016;-82
2022/12/24 11:24:11;;;;;;;31.25;4.07;;;11.00;99.90;;;;;;6254948;22;20019;-81
2022/12/24 11:26:38;;;;;;;29.83;4.47;;;10.80;99.90;;;;;;6231763;22;20012;-82
2022/12/24 11:29:19;;;;;;;19.50;2.92;;;10.80;99.90;;;;;;6255293;22;20087;-82
2022/12/24 11:31:47;;;;;;;23.92;4.53;;;10.80;99.90;;;;;;6255279;22;20511;-82
2022/12/24 11:34:28;;;;;;;20.67;2.85;;;10.90;99.90;;;;;;6230359;22;20385;-82
2022/12/24 11:37:17;;;;;;;32.83;3.85;;;10.90;99.90;;;;;;6230276;22;20015;-81
2022/12/24 11:40:17;;;;;;;32.47;4.82;;;10.80;99.90;;;;;;6229532;22;20440;-82
2022/12/24 11:42:43;;;;;;;21.58;3.42;;;10.70;99.90;;;;;;6201128;22;20031;-82
2022/12/24 11:45:28;;;;;;;28.20;4.15;;;10.70;99.90;;;;;;6228413;22;20401;-83
2022/12/24 11:47:54;;;;;;;17.05;2.42;;;10.70;99.90;;;;;;6228508;22;20421;-82
2022/12/24 11:50:27;;;;;;;24.05;3.45;;;10.70;99.90;;;;;;6219277;22;20377;-82
2022/12/24 11:53:03;;;;;;;21.02;3.28;;;10.70;99.90;;;;;;6227275;22;20015;-81
2022/12/24 11:55:43;;;;;;;29.67;4.47;;;10.80;99.90;;;;;;6255147;22;20019;-82
2022/12/24 11:58:24;;;;;;;22.80;3.58;;;10.80;99.90;;;;;;6230320;22;20019;-82
2022/12/24 12:00:51;;;;;;;26.00;3.90;;;10.80;99.90;;;;;;6239538;22;20466;-82
2022/12/24 12:03:34;;;;;;;17.85;2.67;;;10.90;99.90;;;;;;6215683;22;20019;-82
2022/12/24 12:06:03;;;;;;;21.13;2.63;;;10.90;99.90;;;;;;6241947;22;20004;-82
2022/12/24 12:08:30;;;;;;;23.15;2.58;;;11.00;99.90;;;;;;6217090;22;20011;-82
2022/12/24 12:10:59;;;;;;;19.25;1.90;;;10.90;99.90;;;;;;6240244;22;20090;-83
2022/12/24 12:13:36;;;;;;;23.25;2.65;;;10.90;99.90;;;;;;6242454;22;20107;-82
2022/12/24 12:16:27;;;;;;;19.95;3.30;;;11.00;99.90;;;;;;6216754;22;20074;-83
2022/12/24 12:19:02;;;;;;;18.40;2.22;;;11.20;99.90;;;;;;6216814;22;20036;-81
2022/12/24 12:21:45;;;;;;;26.30;3.70;;;11.20;99.90;;;;;;6216956;22;20011;-82
2022/12/24 12:24:23;;;;;;;24.88;2.15;;;11.00;99.90;;;;;;6241144;22;20004;-81
2022/12/24 12:27:02;;;;;;;20.25;1.85;;;10.90;99.90;;;;;;6216242;22;20031;-81
2022/12/24 12:29:36;;;;;;;13.77;1.23;;;10.90;99.90;;;;;;6242950;22;20094;-81
2022/12/24 12:32:06;;;;;;;24.70;2.00;;;10.80;99.90;;;;;;6269033;22;20007;-81
2022/12/24 12:34:39;;;;;;;18.80;2.38;;;10.80;99.90;;;;;;6269240;22;20386;-81
2022/12/24 12:37:17;;;;;;;21.20;2.13;;;11.00;99.90;;;;;;6242331;22;20003;-82
2022/12/24 12:39:42;;;;;;;20.42;1.98;;;10.90;99.90;;;;;;6217487;22;20051;-83
2022/12/24 12:42:23;;;;;;;19.73;1.60;;;10.90;99.90;;;;;;6219012;22;20024;-82
2022/12/24 12:45:14;;;;;;;16.08;1.95;;;10.80;99.90;;;;;;6216103;22;20019;-81
2022/12/24 12:47:51;;;;;;;21.02;1.95;;;10.70;99.90;;;;;;6242199;22;20007;-82
2022/12/24 12:50:46;;;;;;;16.27;1.45;;;10.70;99.90;;;;;;6242915;22;20003;-83
2022/12/24 12:53:24;;;;;;;20.65;1.98;;;10.70;99.90;;;;;;6217428;22;20091;-81
2022/12/24 12:56:04;;;;;;;22.95;2.47;;;10.80;99.90;;;;;;6247263;22;20016;-82
2022/12/24 12:58:36;;;;;;;21.67;2.65;;;10.80;99.90;;;;;;6274967;22;20070;-83
2022/12/24 13:01:18;;;;;;;13.48;1.45;;;10.80;99.90;;;;;;6274657;22;20081;-82
2022/12/24 13:04:00;;;;;;;23.08;2.03;;;10.70;99.90;;;;;;6248651;22;20111;-82
2022/12/24 13:06:57;;;;;;;15.35;1.25;;;10.70;99.90;;;;;;6249685;22;20086;-82
2022/12/24 13:09:31;;;;;;;18.42;2.13;;;10.60;99.90;;;;;;6274471;22;20012;-81
2022/12/24 13:12:00;;;;;;;17.52;1.13;;;10.80;99.90;;;;;;6301618;22;20004;-82
2022/12/24 13:14:50;;;;;;;25.23;2.30;;;10.70;99.90;;;;;;6248810;22;20066;-81
2022/12/24 13:17:37;;;;;;;16.98;1.77;;;10.70;99.90;;;;;;6302300;22;20007;-82